Δεν απαιτείται κάποια ιδιαίτερη επαγρύπνηση.    Δεν υπάρχουν προειδοποιήσεις επικίνδυνων καιρικών φαινομένων

Οι άλλοι ιστότοποί μου:

SYKIA HOMEWEATHERSTATIONsikeaweather.alinos.eu

SYKIA METEOTEMPLATEsykiameteo.alinos.eu

alinos.eualinos.eu



Αναφορές γειτονικών METAR

   
LGEL - Elefsis (hel-Afb, Greece
Απόσταση από τον σταθμό: Α 77 km
Ενημερώθηκε: 19-02-2019 13:20
Αίθριος  
Αίθριος  
   Ανεμος: ΝΝΔ 18.5 km/h
Ανεμος: ΝΝΔ 18.5 km/h
Θερμοκρασία: 17°C
Σημείο Δρόσου: 8°C
Υγρασία: 56%
Βαρόμετρο: 1021 hPa
Ορατότητα: More than 10 km
Στοιχεία νεφών: Αίθριος
LGEL 191120Z 20010KT CAVOK 17/08 Q1021
LGRX - Araxos (civ/Afb), Greece
Απόσταση από τον σταθμό: Δ 110 km
Ενημερώθηκε: 19-02-2019 13:20
Διάσπαρτα νέφη  
Διάσπαρτα νέφη  
   Ανεμος: Δυτικά 11.1 km/h
Ανεμος: Δυτικά 11.1 km/h
Θερμοκρασία: 15°C
Σημείο Δρόσου: 9°C
Υγρασία: 68%
Βαρόμετρο: 1023 hPa
Νεφώσεις: Διάσπαρτα νέφη
Ορατότητα: More than 10 km
Στοιχεία νεφών: Διάσπαρτα νέφη 2000 ft
LGRX 191120Z 27006KT 9999 FEW020 15/09 Q1023
LGAV - Athens/Elef-Ven, Greece
Απόσταση από τον σταθμό: Α 113 km
Ενημερώθηκε: 19-02-2019 13:20
Διάσπαρτα νέφη  
Διάσπαρτα νέφη  
   Ανεμος: ΒΑ 13 km/h
Ανεμος: ΒΑ 13 km/h
Θερμοκρασία: 15°C
Σημείο Δρόσου: 4°C
Υγρασία: 48%
Βαρόμετρο: 1022 hPa
Νεφώσεις: Διάσπαρτα νέφη
Ορατότητα: More than 10 km
Στοιχεία νεφών: Διάσπαρτα νέφη 3000 ft
LGAV 191120Z 05007KT 9999 FEW030 15/04 Q1022 NOSIG
LGAD - Andravida (civ/A, Greece
Απόσταση από τον σταθμό: Δ 124 km
Ενημερώθηκε: 19-02-2019 13:20
Μερικώς νεφελώδης  
Μερικώς νεφελώδης  
   Ανεμος: ΒΔ 7.4 km/h
Ανεμος: ΒΔ 7.4 km/h
Θερμοκρασία: 15°C
Σημείο Δρόσου: 8°C
Υγρασία: 63%
Βαρόμετρο: 1023 hPa
Νεφώσεις: Μερικώς νεφελώδης
Ορατότητα: More than 10 km
Στοιχεία νεφών: Μερικώς νεφελώδης 2500 ft
LGAD 191120Z 32004KT 9999 SCT025 15/08 Q1023
LGKL - Kalamata (hel-Af, Greece
Απόσταση από τον σταθμό: ΝΝΔ 124 km
Ενημερώθηκε: 19-02-2019 13:20
Διάσπαρτα νέφη  
Διάσπαρτα νέφη  
   Ανεμος: μεταβλητός Απνοια
Ανεμος: μεταβλητός Απνοια
Θερμοκρασία: 17°C
Σημείο Δρόσου: 7°C
Υγρασία: 52%
Βαρόμετρο: 1022 hPa
Νεφώσεις: Διάσπαρτα νέφη
Ορατότητα: More than 10 km
Στοιχεία νεφών: Διάσπαρτα νέφη 2500 ft
LGKL 191120Z /////KT 9999 FEW025 17/07 Q1022
LGBL - Nea Anchialos, Greece
Απόσταση από τον σταθμό: Β 129 km
Ενημερώθηκε: 19-02-2019 13:20
Αίθριος  
Αίθριος  
   Ανεμος: ΑΒΑ 9.3 km/h
Ανεμος: ΑΒΑ 9.3 km/h
Θερμοκρασία: 15°C
Σημείο Δρόσου: 3°C
Υγρασία: 45%
Βαρόμετρο: 1022 hPa
Ορατότητα: More than 10 km
Στοιχεία νεφών: Αίθριος
LGBL 191120Z 07005KT CAVOK 15/03 Q1022

Αρχική γραφή από  Saratoga-weather.org Προσαρμογή στον ιστότοπο από  Weerstation Leuven

Βλέπε επίσης τις ενημερώσεις τού σταθμού μας στα παρακάτω δίκτυα:

European Weather Network

Weather Underground

AWEKAS

Citizen Weather Observer Program (CWOP)

HAMweather, WeatherForYou, PWS Weather

UK Metoffice

Equipment we use:

Μετεωρολογικός σταθμός
Davis Wireless Vantage Pro2

Davis Wireless Vantage Pro2